Aeroporto :
LOGIN :

Iscrizione | Disclaimer

   EN    FR    IT 

 










Sommario :    VFR   VFR Marginale   IFR   IFR Intensivo   IFR Molto Intensivo
Visibilità : 
Base nubi : 
>= 8 km
>= 3000ft
5 / 8 km
1000 / 3000 ft
1500m / 5 km
500 / 1000 ft
800 / 1500m
200 / 500 ft
< 800m
< 200 ft
Simboli :   Temporali  Nebbia  Neve Forte  Precipitazioni Forti  Vento > 20 kt
SIGMETs :   Varie  Temporali  Ghiacco  Turbolenza  Onda orograficha  Ceneri Vulcaniche







- Altitudine del aeroporto : 755 ft
- Codice IATA : DRS


EDDC - Dresden Klotzsche

ULTIMO METAR :
  • 140350Z 19010KT 9999 OVC031 04/02 Q0991

METARs OBSOLETI :
  • 140320Z 18011KT 150V210 9999 -RA OVC033 04/02 Q0990
  • 140250Z 18014KT 9999 FEW019 SCT039 BKN097 03/02 Q0990
  • 140220Z 18014KT 9999 -RA SCT011 OVC017 03/01 Q0991
  • 140150Z 18016KT 9999 -RA SCT015 OVC022 02/00 Q0990
  • 140120Z 18017KT 9999 -RA BKN025 SCT036 03/M00 Q0991

TAF TAF EDDC
Valido dal 14 a 00 ore il 15 a 00 ore UTC


132300Z 1400/1424 18010G20KT 9999 SCT030
PROB30
TEMPO 1402/1405 20020G30KT 4500 RA BKN012
BECMG 1405/1408 22020G30KT
PROB30
TEMPO 1408/1414 25025G40KT 3000 SHRASN BKN012TCU
BECMG 1414/1417 22015G25KT
BECMG 1417/1420 20010KT
Nessun NOTAM noto per questo aeroporto.
2 SIGMETs conosciuti per la FIR München (EDMM) :
 
Turbolenza severa
EDMM SIGMET 2 VALID 140417/140800 EDZM
EDMM MUNCHEN FIR SEV TURB FCST S OF LINE N4855 E00959 - N4855 E01344 SFC/FL060 STNR NC=
Turbolenza severa
EDMM SIGMET 1 VALID 140020/140420 EDZM
EDMM MUNCHEN FIR SEV TURB FCST S OF LINE N4749 E00937 - N4748 E01300 SFC/FL150 STNR NC=



MetMap, La meteo Aeronautica in un colpo d'occhio ! - Copyright ORBIFLY Dicembre 2007 - Disclaimer

ORBIFLY MET'MAP TEAM :

Programmazione e sviluppo : Alexandra Zaïnal
Concezione e sviluppo : Baudouin d'Aumeries
Co-Programmazione e sviluppo : Marc-Olivier Méhu
Supporto tecnico e logistico : Manuel Goepfert
Aiuto per la traduzione : Arnaldo La Scala

Contatto : metmap@orbifly.com




FONTI E CREDITI :

   NOAA